sensor_id;sensor_type;location;lat;lon;timestamp;temperature;humidity
32706;DHT22;19094;50.972;3.538;2023-12-20T00:01:32;11.90;73.00
32706;DHT22;19094;50.972;3.538;2023-12-20T00:03:58;11.90;72.60
32706;DHT22;19094;50.972;3.538;2023-12-20T00:06:23;11.90;72.70
32706;DHT22;19094;50.972;3.538;2023-12-20T00:08:49;11.90;72.70
32706;DHT22;19094;50.972;3.538;2023-12-20T00:11:15;11.90;72.70
32706;DHT22;19094;50.972;3.538;2023-12-20T00:13:41;11.90;73.00
32706;DHT22;19094;50.972;3.538;2023-12-20T00:16:06;11.90;72.80
32706;DHT22;19094;50.972;3.538;2023-12-20T00:18:32;11.90;72.80
32706;DHT22;19094;50.972;3.538;2023-12-20T00:20:57;11.90;72.70
32706;DHT22;19094;50.972;3.538;2023-12-20T00:23:23;11.90;72.80
32706;DHT22;19094;50.972;3.538;2023-12-20T00:25:49;11.90;72.80
32706;DHT22;19094;50.972;3.538;2023-12-20T00:28:15;11.90;72.90
32706;DHT22;19094;50.972;3.538;2023-12-20T00:30:40;11.90;72.70
32706;DHT22;19094;50.972;3.538;2023-12-20T00:33:06;11.90;72.60
32706;DHT22;19094;50.972;3.538;2023-12-20T00:35:33;11.90;72.60
32706;DHT22;19094;50.972;3.538;2023-12-20T00:37:59;11.90;72.70
32706;DHT22;19094;50.972;3.538;2023-12-20T00:40:25;11.90;72.60
32706;DHT22;19094;50.972;3.538;2023-12-20T00:42:50;11.90;72.60
32706;DHT22;19094;50.972;3.538;2023-12-20T00:45:16;11.90;72.50
32706;DHT22;19094;50.972;3.538;2023-12-20T00:47:42;11.90;72.50
32706;DHT22;19094;50.972;3.538;2023-12-20T00:50:08;11.90;72.60
32706;DHT22;19094;50.972;3.538;2023-12-20T00:52:34;11.80;72.50
32706;DHT22;19094;50.972;3.538;2023-12-20T00:55:00;11.80;72.60
32706;DHT22;19094;50.972;3.538;2023-12-20T00:57:27;11.90;72.50
32706;DHT22;19094;50.972;3.538;2023-12-20T00:59:52;11.80;72.60
32706;DHT22;19094;50.972;3.538;2023-12-20T01:02:18;11.80;72.50
32706;DHT22;19094;50.972;3.538;2023-12-20T01:04:44;11.80;72.40
32706;DHT22;19094;50.972;3.538;2023-12-20T01:07:10;11.80;72.40
32706;DHT22;19094;50.972;3.538;2023-12-20T01:09:36;11.80;72.60
32706;DHT22;19094;50.972;3.538;2023-12-20T01:12:01;11.80;72.60
32706;DHT22;19094;50.972;3.538;2023-12-20T01:14:27;11.80;72.60
32706;DHT22;19094;50.972;3.538;2023-12-20T01:16:53;11.80;72.50
32706;DHT22;19094;50.972;3.538;2023-12-20T01:19:19;11.80;72.70
32706;DHT22;19094;50.972;3.538;2023-12-20T01:21:45;11.80;72.60
32706;DHT22;19094;50.972;3.538;2023-12-20T01:24:12;11.80;72.40
32706;DHT22;19094;50.972;3.538;2023-12-20T01:26:37;11.80;72.40
32706;DHT22;19094;50.972;3.538;2023-12-20T01:29:03;11.80;72.60
32706;DHT22;19094;50.972;3.538;2023-12-20T01:31:29;11.80;72.60
32706;DHT22;19094;50.972;3.538;2023-12-20T01:33:55;11.80;72.70
32706;DHT22;19094;50.972;3.538;2023-12-20T01:36:21;11.80;72.40
32706;DHT22;19094;50.972;3.538;2023-12-20T01:38:47;11.90;72.50
32706;DHT22;19094;50.972;3.538;2023-12-20T01:41:13;11.80;72.40
32706;DHT22;19094;50.972;3.538;2023-12-20T01:43:38;11.80;72.40
32706;DHT22;19094;50.972;3.538;2023-12-20T01:46:04;11.80;72.40
32706;DHT22;19094;50.972;3.538;2023-12-20T01:48:31;11.80;72.40
32706;DHT22;19094;50.972;3.538;2023-12-20T01:50:59;11.80;72.30
32706;DHT22;19094;50.972;3.538;2023-12-20T01:53:27;11.90;72.90
32706;DHT22;19094;50.972;3.538;2023-12-20T01:55:55;11.80;72.20
32706;DHT22;19094;50.972;3.538;2023-12-20T01:58:22;11.80;72.30
32706;DHT22;19094;50.972;3.538;2023-12-20T02:00:50;11.80;72.30
32706;DHT22;19094;50.972;3.538;2023-12-20T02:03:17;11.80;72.30
32706;DHT22;19094;50.972;3.538;2023-12-20T02:05:44;11.80;72.40
32706;DHT22;19094;50.972;3.538;2023-12-20T02:08:09;11.80;72.30
32706;DHT22;19094;50.972;3.538;2023-12-20T02:10:35;11.80;72.40
32706;DHT22;19094;50.972;3.538;2023-12-20T02:13:01;11.80;72.40
32706;DHT22;19094;50.972;3.538;2023-12-20T02:15:27;11.80;72.40
32706;DHT22;19094;50.972;3.538;2023-12-20T02:17:52;11.80;72.40
32706;DHT22;19094;50.972;3.538;2023-12-20T02:20:19;11.80;72.40
32706;DHT22;19094;50.972;3.538;2023-12-20T02:22:44;11.80;72.30
32706;DHT22;19094;50.972;3.538;2023-12-20T02:25:10;11.80;72.20
32706;DHT22;19094;50.972;3.538;2023-12-20T02:27:36;11.80;72.20
32706;DHT22;19094;50.972;3.538;2023-12-20T02:30:02;11.80;72.10
32706;DHT22;19094;50.972;3.538;2023-12-20T02:32:29;11.80;72.10
32706;DHT22;19094;50.972;3.538;2023-12-20T02:34:55;11.80;72.10
32706;DHT22;19094;50.972;3.538;2023-12-20T02:37:21;11.80;72.60
32706;DHT22;19094;50.972;3.538;2023-12-20T02:39:47;11.80;72.10
32706;DHT22;19094;50.972;3.538;2023-12-20T02:42:12;11.80;72.00
32706;DHT22;19094;50.972;3.538;2023-12-20T02:44:38;11.70;72.00
32706;DHT22;19094;50.972;3.538;2023-12-20T02:47:04;11.80;72.00
32706;DHT22;19094;50.972;3.538;2023-12-20T02:49:30;11.80;72.10
32706;DHT22;19094;50.972;3.538;2023-12-20T02:51:55;11.70;72.00
32706;DHT22;19094;50.972;3.538;2023-12-20T02:54:21;11.80;72.10
32706;DHT22;19094;50.972;3.538;2023-12-20T02:56:48;11.80;72.00
32706;DHT22;19094;50.972;3.538;2023-12-20T02:59:14;11.80;71.70
32706;DHT22;19094;50.972;3.538;2023-12-20T03:01:43;11.80;71.70
32706;DHT22;19094;50.972;3.538;2023-12-20T03:04:09;11.80;72.10
32706;DHT22;19094;50.972;3.538;2023-12-20T03:06:35;11.80;71.80
32706;DHT22;19094;50.972;3.538;2023-12-20T03:09:01;11.90;71.80
32706;DHT22;19094;50.972;3.538;2023-12-20T03:11:27;11.80;71.80
32706;DHT22;19094;50.972;3.538;2023-12-20T03:13:53;11.80;71.90
32706;DHT22;19094;50.972;3.538;2023-12-20T03:16:19;11.80;72.20
32706;DHT22;19094;50.972;3.538;2023-12-20T03:18:45;11.90;71.80
32706;DHT22;19094;50.972;3.538;2023-12-20T03:21:10;11.90;71.80
32706;DHT22;19094;50.972;3.538;2023-12-20T03:23:36;11.90;71.80
32706;DHT22;19094;50.972;3.538;2023-12-20T03:26:02;11.90;71.70
32706;DHT22;19094;50.972;3.538;2023-12-20T03:28:28;11.90;71.90
32706;DHT22;19094;50.972;3.538;2023-12-20T03:30:53;11.90;71.80
32706;DHT22;19094;50.972;3.538;2023-12-20T03:33:19;11.90;71.40
32706;DHT22;19094;50.972;3.538;2023-12-20T03:35:44;11.80;71.60
32706;DHT22;19094;50.972;3.538;2023-12-20T03:38:10;11.80;71.60
32706;DHT22;19094;50.972;3.538;2023-12-20T03:40:36;11.80;71.90
32706;DHT22;19094;50.972;3.538;2023-12-20T03:43:02;11.80;71.60
32706;DHT22;19094;50.972;3.538;2023-12-20T03:45:27;11.80;71.80
32706;DHT22;19094;50.972;3.538;2023-12-20T03:47:53;11.80;71.60
32706;DHT22;19094;50.972;3.538;2023-12-20T03:50:23;11.80;71.70
32706;DHT22;19094;50.972;3.538;2023-12-20T03:52:49;11.70;71.70
32706;DHT22;19094;50.972;3.538;2023-12-20T03:55:16;11.70;71.80
32706;DHT22;19094;50.972;3.538;2023-12-20T03:57:42;11.70;71.70
32706;DHT22;19094;50.972;3.538;2023-12-20T04:00:08;11.70;71.70
32706;DHT22;19094;50.972;3.538;2023-12-20T04:02:41;11.80;71.90
32706;DHT22;19094;50.972;3.538;2023-12-20T04:05:07;11.80;71.60
32706;DHT22;19094;50.972;3.538;2023-12-20T04:07:33;11.80;71.60
32706;DHT22;19094;50.972;3.538;2023-12-20T04:09:59;11.80;71.80
32706;DHT22;19094;50.972;3.538;2023-12-20T04:12:25;11.70;71.80
32706;DHT22;19094;50.972;3.538;2023-12-20T04:14:51;11.70;71.80
32706;DHT22;19094;50.972;3.538;2023-12-20T04:17:17;11.70;71.80
32706;DHT22;19094;50.972;3.538;2023-12-20T04:19:43;11.60;71.70
32706;DHT22;19094;50.972;3.538;2023-12-20T04:22:09;11.70;71.70
32706;DHT22;19094;50.972;3.538;2023-12-20T04:24:35;11.60;71.60
32706;DHT22;19094;50.972;3.538;2023-12-20T04:27:01;11.60;71.50
32706;DHT22;19094;50.972;3.538;2023-12-20T04:29:27;11.60;71.80
32706;DHT22;19094;50.972;3.538;2023-12-20T04:31:53;11.60;71.70
32706;DHT22;19094;50.972;3.538;2023-12-20T04:34:19;11.60;71.60
32706;DHT22;19094;50.972;3.538;2023-12-20T04:36:45;11.60;71.60
32706;DHT22;19094;50.972;3.538;2023-12-20T04:39:12;11.60;71.80
32706;DHT22;19094;50.972;3.538;2023-12-20T04:41:38;11.60;71.80
32706;DHT22;19094;50.972;3.538;2023-12-20T04:44:04;11.60;71.80
32706;DHT22;19094;50.972;3.538;2023-12-20T04:46:30;11.70;71.70
32706;DHT22;19094;50.972;3.538;2023-12-20T04:48:55;11.70;71.50
32706;DHT22;19094;50.972;3.538;2023-12-20T04:51:21;11.70;71.40
32706;DHT22;19094;50.972;3.538;2023-12-20T04:53:47;11.70;71.70
32706;DHT22;19094;50.972;3.538;2023-12-20T04:56:12;11.70;71.70
32706;DHT22;19094;50.972;3.538;2023-12-20T04:58:42;11.70;71.80
32706;DHT22;19094;50.972;3.538;2023-12-20T05:01:08;11.70;71.60
32706;DHT22;19094;50.972;3.538;2023-12-20T05:03:35;11.70;71.50
32706;DHT22;19094;50.972;3.538;2023-12-20T05:06:00;11.70;71.50
32706;DHT22;19094;50.972;3.538;2023-12-20T05:08:26;11.70;71.90
32706;DHT22;19094;50.972;3.538;2023-12-20T05:10:54;11.70;71.70
32706;DHT22;19094;50.972;3.538;2023-12-20T05:13:20;11.70;71.70
32706;DHT22;19094;50.972;3.538;2023-12-20T05:15:46;11.70;71.60
32706;DHT22;19094;50.972;3.538;2023-12-20T05:18:12;11.60;71.50
32706;DHT22;19094;50.972;3.538;2023-12-20T05:20:38;11.70;71.60
32706;DHT22;19094;50.972;3.538;2023-12-20T05:23:04;11.60;71.70
32706;DHT22;19094;50.972;3.538;2023-12-20T05:25:29;11.70;71.60
32706;DHT22;19094;50.972;3.538;2023-12-20T05:27:55;11.60;71.60
32706;DHT22;19094;50.972;3.538;2023-12-20T05:30:21;11.70;71.50
32706;DHT22;19094;50.972;3.538;2023-12-20T05:32:47;11.70;71.70
32706;DHT22;19094;50.972;3.538;2023-12-20T05:35:13;11.70;71.50
32706;DHT22;19094;50.972;3.538;2023-12-20T05:37:39;11.60;71.30
32706;DHT22;19094;50.972;3.538;2023-12-20T05:40:05;11.70;71.70
32706;DHT22;19094;50.972;3.538;2023-12-20T05:42:31;11.70;71.60
32706;DHT22;19094;50.972;3.538;2023-12-20T05:44:57;11.70;71.50
32706;DHT22;19094;50.972;3.538;2023-12-20T05:47:22;11.70;71.40
32706;DHT22;19094;50.972;3.538;2023-12-20T05:49:48;11.70;71.40
32706;DHT22;19094;50.972;3.538;2023-12-20T05:52:15;11.60;71.50
32706;DHT22;19094;50.972;3.538;2023-12-20T05:54:41;11.60;71.20
32706;DHT22;19094;50.972;3.538;2023-12-20T05:57:06;11.60;71.30
32706;DHT22;19094;50.972;3.538;2023-12-20T05:59:32;11.70;71.60
32706;DHT22;19094;50.972;3.538;2023-12-20T06:01:58;11.70;71.50
32706;DHT22;19094;50.972;3.538;2023-12-20T06:04:23;11.70;71.40
32706;DHT22;19094;50.972;3.538;2023-12-20T06:06:49;11.60;71.30
32706;DHT22;19094;50.972;3.538;2023-12-20T06:09:14;11.60;71.30
32706;DHT22;19094;50.972;3.538;2023-12-20T06:11:40;11.60;71.10
32706;DHT22;19094;50.972;3.538;2023-12-20T06:14:06;11.60;71.30
32706;DHT22;19094;50.972;3.538;2023-12-20T06:16:32;11.60;71.30
32706;DHT22;19094;50.972;3.538;2023-12-20T06:18:58;11.70;71.10
32706;DHT22;19094;50.972;3.538;2023-12-20T06:21:23;11.60;71.20
32706;DHT22;19094;50.972;3.538;2023-12-20T06:23:49;11.70;71.30
32706;DHT22;19094;50.972;3.538;2023-12-20T06:26:15;11.60;71.80
32706;DHT22;19094;50.972;3.538;2023-12-20T06:28:41;11.60;71.10
32706;DHT22;19094;50.972;3.538;2023-12-20T06:31:07;11.60;71.10
32706;DHT22;19094;50.972;3.538;2023-12-20T06:33:32;11.60;71.10
32706;DHT22;19094;50.972;3.538;2023-12-20T06:35:58;11.60;71.30
32706;DHT22;19094;50.972;3.538;2023-12-20T06:38:24;11.60;71.10
32706;DHT22;19094;50.972;3.538;2023-12-20T06:40:50;11.60;71.00
32706;DHT22;19094;50.972;3.538;2023-12-20T06:43:15;11.60;71.10
32706;DHT22;19094;50.972;3.538;2023-12-20T06:45:41;11.60;71.10
32706;DHT22;19094;50.972;3.538;2023-12-20T06:48:07;11.60;71.30
32706;DHT22;19094;50.972;3.538;2023-12-20T06:50:33;11.60;71.20
32706;DHT22;19094;50.972;3.538;2023-12-20T06:52:59;11.60;71.30
32706;DHT22;19094;50.972;3.538;2023-12-20T06:55:24;11.60;71.30
32706;DHT22;19094;50.972;3.538;2023-12-20T06:57:50;11.60;71.20
32706;DHT22;19094;50.972;3.538;2023-12-20T07:00:16;11.60;71.30
32706;DHT22;19094;50.972;3.538;2023-12-20T07:02:44;11.60;71.10
32706;DHT22;19094;50.972;3.538;2023-12-20T07:05:09;11.60;70.90
32706;DHT22;19094;50.972;3.538;2023-12-20T07:07:35;11.60;71.40
32706;DHT22;19094;50.972;3.538;2023-12-20T07:10:01;11.60;71.10
32706;DHT22;19094;50.972;3.538;2023-12-20T07:12:27;11.60;70.90
32706;DHT22;19094;50.972;3.538;2023-12-20T07:14:53;11.60;70.80
32706;DHT22;19094;50.972;3.538;2023-12-20T07:17:19;11.60;71.00
32706;DHT22;19094;50.972;3.538;2023-12-20T07:19:45;11.60;71.00
32706;DHT22;19094;50.972;3.538;2023-12-20T07:22:11;11.50;71.20
32706;DHT22;19094;50.972;3.538;2023-12-20T07:24:36;11.50;71.00
32706;DHT22;19094;50.972;3.538;2023-12-20T07:27:04;11.60;71.30
32706;DHT22;19094;50.972;3.538;2023-12-20T07:29:29;11.60;71.00
32706;DHT22;19094;50.972;3.538;2023-12-20T07:31:55;11.70;72.80
32706;DHT22;19094;50.972;3.538;2023-12-20T07:34:21;11.70;71.50
32706;DHT22;19094;50.972;3.538;2023-12-20T07:36:47;11.60;70.70
32706;DHT22;19094;50.972;3.538;2023-12-20T07:39:13;11.60;71.00
32706;DHT22;19094;50.972;3.538;2023-12-20T07:41:39;11.60;71.00
32706;DHT22;19094;50.972;3.538;2023-12-20T07:44:06;11.60;71.00
32706;DHT22;19094;50.972;3.538;2023-12-20T07:46:33;11.50;71.30
32706;DHT22;19094;50.972;3.538;2023-12-20T07:48:58;11.50;71.10
32706;DHT22;19094;50.972;3.538;2023-12-20T07:51:24;11.50;71.20
32706;DHT22;19094;50.972;3.538;2023-12-20T07:53:51;11.60;71.20
32706;DHT22;19094;50.972;3.538;2023-12-20T07:56:18;11.60;71.30
32706;DHT22;19094;50.972;3.538;2023-12-20T07:58:44;11.60;71.20
32706;DHT22;19094;50.972;3.538;2023-12-20T08:01:11;11.50;71.20
32706;DHT22;19094;50.972;3.538;2023-12-20T08:03:38;11.50;71.30
32706;DHT22;19094;50.972;3.538;2023-12-20T08:06:04;11.50;71.20
32706;DHT22;19094;50.972;3.538;2023-12-20T08:08:30;11.50;71.30
32706;DHT22;19094;50.972;3.538;2023-12-20T08:10:56;11.50;71.30
32706;DHT22;19094;50.972;3.538;2023-12-20T08:13:24;11.60;71.20
32706;DHT22;19094;50.972;3.538;2023-12-20T08:15:52;11.50;71.20
32706;DHT22;19094;50.972;3.538;2023-12-20T08:18:18;11.50;71.10
32706;DHT22;19094;50.972;3.538;2023-12-20T08:20:44;11.50;71.00
32706;DHT22;19094;50.972;3.538;2023-12-20T08:23:10;11.50;71.20
32706;DHT22;19094;50.972;3.538;2023-12-20T08:25:36;11.50;71.20
32706;DHT22;19094;50.972;3.538;2023-12-20T08:28:05;11.50;71.20
32706;DHT22;19094;50.972;3.538;2023-12-20T08:30:30;11.50;71.00
32706;DHT22;19094;50.972;3.538;2023-12-20T08:33:00;11.50;71.20
32706;DHT22;19094;50.972;3.538;2023-12-20T08:35:26;11.50;71.20
32706;DHT22;19094;50.972;3.538;2023-12-20T08:37:51;11.50;71.00
32706;DHT22;19094;50.972;3.538;2023-12-20T08:40:17;11.40;71.10
32706;DHT22;19094;50.972;3.538;2023-12-20T08:42:43;11.50;71.20
32706;DHT22;19094;50.972;3.538;2023-12-20T08:45:10;11.50;71.20
32706;DHT22;19094;50.972;3.538;2023-12-20T08:47:35;11.50;71.20
32706;DHT22;19094;50.972;3.538;2023-12-20T08:50:02;11.50;71.50
32706;DHT22;19094;50.972;3.538;2023-12-20T08:52:28;11.50;71.00
32706;DHT22;19094;50.972;3.538;2023-12-20T08:54:55;11.50;71.00
32706;DHT22;19094;50.972;3.538;2023-12-20T08:57:20;11.50;71.10
32706;DHT22;19094;50.972;3.538;2023-12-20T08:59:47;11.60;71.10
32706;DHT22;19094;50.972;3.538;2023-12-20T09:02:14;11.60;70.90
32706;DHT22;19094;50.972;3.538;2023-12-20T09:04:39;11.60;71.10
32706;DHT22;19094;50.972;3.538;2023-12-20T09:07:05;11.50;71.00
32706;DHT22;19094;50.972;3.538;2023-12-20T09:09:33;11.60;71.10
32706;DHT22;19094;50.972;3.538;2023-12-20T09:11:59;11.50;70.80
32706;DHT22;19094;50.972;3.538;2023-12-20T09:14:25;11.50;71.10
32706;DHT22;19094;50.972;3.538;2023-12-20T09:16:51;11.60;71.20
32706;DHT22;19094;50.972;3.538;2023-12-20T09:19:17;11.60;71.30
32706;DHT22;19094;50.972;3.538;2023-12-20T09:21:43;11.60;71.00
32706;DHT22;19094;50.972;3.538;2023-12-20T09:24:09;11.60;70.80
32706;DHT22;19094;50.972;3.538;2023-12-20T09:26:35;11.70;70.80
32706;DHT22;19094;50.972;3.538;2023-12-20T09:29:00;11.70;70.80
32706;DHT22;19094;50.972;3.538;2023-12-20T09:31:26;11.60;70.80
32706;DHT22;19094;50.972;3.538;2023-12-20T09:33:52;11.60;70.80
32706;DHT22;19094;50.972;3.538;2023-12-20T09:36:18;11.70;70.80
32706;DHT22;19094;50.972;3.538;2023-12-20T09:38:44;11.60;70.80
32706;DHT22;19094;50.972;3.538;2023-12-20T09:41:09;11.70;71.00
32706;DHT22;19094;50.972;3.538;2023-12-20T09:43:38;11.70;70.80
32706;DHT22;19094;50.972;3.538;2023-12-20T09:46:06;11.70;70.70
32706;DHT22;19094;50.972;3.538;2023-12-20T09:48:35;11.80;70.70
32706;DHT22;19094;50.972;3.538;2023-12-20T09:51:02;11.70;70.90
32706;DHT22;19094;50.972;3.538;2023-12-20T09:53:28;11.70;70.70
32706;DHT22;19094;50.972;3.538;2023-12-20T09:55:58;11.80;70.60
32706;DHT22;19094;50.972;3.538;2023-12-20T09:58:27;11.80;70.60
32706;DHT22;19094;50.972;3.538;2023-12-20T10:00:53;11.70;70.70
32706;DHT22;19094;50.972;3.538;2023-12-20T10:03:23;11.70;70.80
32706;DHT22;19094;50.972;3.538;2023-12-20T10:05:52;11.70;71.30
32706;DHT22;19094;50.972;3.538;2023-12-20T10:08:21;11.70;71.00
32706;DHT22;19094;50.972;3.538;2023-12-20T10:10:47;11.80;70.90
32706;DHT22;19094;50.972;3.538;2023-12-20T10:13:13;11.80;70.90
32706;DHT22;19094;50.972;3.538;2023-12-20T10:15:40;11.80;70.80
32706;DHT22;19094;50.972;3.538;2023-12-20T10:18:06;11.80;70.70
32706;DHT22;19094;50.972;3.538;2023-12-20T10:20:32;11.80;70.80
32706;DHT22;19094;50.972;3.538;2023-12-20T10:22:59;11.90;70.70
32706;DHT22;19094;50.972;3.538;2023-12-20T10:25:25;11.80;70.70
32706;DHT22;19094;50.972;3.538;2023-12-20T10:28:09;11.90;71.00
32706;DHT22;19094;50.972;3.538;2023-12-20T10:30:35;11.90;70.60
32706;DHT22;19094;50.972;3.538;2023-12-20T10:33:01;11.90;70.80
32706;DHT22;19094;50.972;3.538;2023-12-20T10:35:27;11.80;70.80
32706;DHT22;19094;50.972;3.538;2023-12-20T10:37:56;11.90;71.00
32706;DHT22;19094;50.972;3.538;2023-12-20T10:40:22;11.90;70.90
32706;DHT22;19094;50.972;3.538;2023-12-20T10:42:49;11.90;70.80
32706;DHT22;19094;50.972;3.538;2023-12-20T10:45:16;11.90;70.90
32706;DHT22;19094;50.972;3.538;2023-12-20T10:47:46;11.90;70.70
32706;DHT22;19094;50.972;3.538;2023-12-20T10:50:12;12.00;70.80
32706;DHT22;19094;50.972;3.538;2023-12-20T10:52:38;12.00;71.00
32706;DHT22;19094;50.972;3.538;2023-12-20T10:55:06;11.90;70.80
32706;DHT22;19094;50.972;3.538;2023-12-20T10:57:33;12.00;70.80
32706;DHT22;19094;50.972;3.538;2023-12-20T11:00:02;11.90;71.00
32706;DHT22;19094;50.972;3.538;2023-12-20T11:02:39;12.00;70.80
32706;DHT22;19094;50.972;3.538;2023-12-20T11:08:39;12.00;70.90
32706;DHT22;19094;50.972;3.538;2023-12-20T11:10:57;12.00;70.80
32706;DHT22;19094;50.972;3.538;2023-12-20T11:13:36;12.00;70.80
32706;DHT22;19094;50.972;3.538;2023-12-20T11:16:04;12.00;70.80
32706;DHT22;19094;50.972;3.538;2023-12-20T11:18:30;12.00;70.90
32706;DHT22;19094;50.972;3.538;2023-12-20T11:21:01;12.00;70.90
32706;DHT22;19094;50.972;3.538;2023-12-20T11:23:27;12.00;70.90
32706;DHT22;19094;50.972;3.538;2023-12-20T11:25:56;12.00;70.80
32706;DHT22;19094;50.972;3.538;2023-12-20T11:28:25;12.00;70.80
32706;DHT22;19094;50.972;3.538;2023-12-20T11:30:56;12.00;70.80
32706;DHT22;19094;50.972;3.538;2023-12-20T11:33:24;12.10;70.70
32706;DHT22;19094;50.972;3.538;2023-12-20T11:35:50;12.00;70.80
32706;DHT22;19094;50.972;3.538;2023-12-20T11:38:16;12.10;71.90
32706;DHT22;19094;50.972;3.538;2023-12-20T11:40:43;12.30;72.10
32706;DHT22;19094;50.972;3.538;2023-12-20T11:43:09;12.30;71.20
32706;DHT22;19094;50.972;3.538;2023-12-20T11:45:35;12.20;70.70
32706;DHT22;19094;50.972;3.538;2023-12-20T11:48:06;12.20;71.00
32706;DHT22;19094;50.972;3.538;2023-12-20T11:50:32;12.20;71.00
32706;DHT22;19094;50.972;3.538;2023-12-20T11:52:58;12.20;71.10
32706;DHT22;19094;50.972;3.538;2023-12-20T11:55:23;12.10;71.00
32706;DHT22;19094;50.972;3.538;2023-12-20T11:57:52;12.10;71.10
32706;DHT22;19094;50.972;3.538;2023-12-20T12:00:19;12.10;71.10
32706;DHT22;19094;50.972;3.538;2023-12-20T12:02:58;12.10;71.00
32706;DHT22;19094;50.972;3.538;2023-12-20T12:05:24;12.10;71.10
32706;DHT22;19094;50.972;3.538;2023-12-20T12:07:51;12.10;71.00
32706;DHT22;19094;50.972;3.538;2023-12-20T12:10:17;12.20;71.10
32706;DHT22;19094;50.972;3.538;2023-12-20T12:12:43;12.20;70.90
32706;DHT22;19094;50.972;3.538;2023-12-20T12:15:09;12.20;71.00
32706;DHT22;19094;50.972;3.538;2023-12-20T12:17:35;12.20;70.90
32706;DHT22;19094;50.972;3.538;2023-12-20T12:20:05;12.20;71.80
32706;DHT22;19094;50.972;3.538;2023-12-20T12:22:31;12.30;71.00
32706;DHT22;19094;50.972;3.538;2023-12-20T12:25:08;12.30;70.80
32706;DHT22;19094;50.972;3.538;2023-12-20T12:27:34;12.30;70.90
32706;DHT22;19094;50.972;3.538;2023-12-20T12:30:05;12.30;70.90
32706;DHT22;19094;50.972;3.538;2023-12-20T12:32:33;12.30;70.70
32706;DHT22;19094;50.972;3.538;2023-12-20T12:34:58;12.30;70.90
32706;DHT22;19094;50.972;3.538;2023-12-20T12:37:24;12.30;71.00
32706;DHT22;19094;50.972;3.538;2023-12-20T12:39:53;12.30;70.90
32706;DHT22;19094;50.972;3.538;2023-12-20T12:42:20;12.30;70.70
32706;DHT22;19094;50.972;3.538;2023-12-20T12:44:47;12.30;71.00
32706;DHT22;19094;50.972;3.538;2023-12-20T12:47:12;12.30;71.00
32706;DHT22;19094;50.972;3.538;2023-12-20T12:49:40;12.30;71.00
32706;DHT22;19094;50.972;3.538;2023-12-20T12:52:06;12.30;70.90
32706;DHT22;19094;50.972;3.538;2023-12-20T12:54:32;12.30;70.90
32706;DHT22;19094;50.972;3.538;2023-12-20T12:56:58;12.40;70.90
32706;DHT22;19094;50.972;3.538;2023-12-20T12:59:23;12.40;70.90
32706;DHT22;19094;50.972;3.538;2023-12-20T13:01:49;12.40;70.90
32706;DHT22;19094;50.972;3.538;2023-12-20T13:04:15;12.40;71.60
32706;DHT22;19094;50.972;3.538;2023-12-20T13:06:41;12.40;70.80
32706;DHT22;19094;50.972;3.538;2023-12-20T13:09:08;12.40;70.60
32706;DHT22;19094;50.972;3.538;2023-12-20T13:11:35;12.50;70.60
32706;DHT22;19094;50.972;3.538;2023-12-20T13:14:01;12.50;70.60
32706;DHT22;19094;50.972;3.538;2023-12-20T13:16:29;12.40;70.70
32706;DHT22;19094;50.972;3.538;2023-12-20T13:18:55;12.40;70.60
32706;DHT22;19094;50.972;3.538;2023-12-20T13:21:24;12.50;70.70
32706;DHT22;19094;50.972;3.538;2023-12-20T13:23:49;12.50;70.70
32706;DHT22;19094;50.972;3.538;2023-12-20T13:26:17;12.40;70.70
32706;DHT22;19094;50.972;3.538;2023-12-20T13:28:43;12.50;70.60
32706;DHT22;19094;50.972;3.538;2023-12-20T13:31:09;12.50;70.70
32706;DHT22;19094;50.972;3.538;2023-12-20T13:33:35;12.50;70.60
32706;DHT22;19094;50.972;3.538;2023-12-20T13:36:01;12.50;70.60
32706;DHT22;19094;50.972;3.538;2023-12-20T13:38:28;12.50;70.50
32706;DHT22;19094;50.972;3.538;2023-12-20T13:40:54;12.50;70.70
32706;DHT22;19094;50.972;3.538;2023-12-20T13:43:19;12.50;70.60
32706;DHT22;19094;50.972;3.538;2023-12-20T13:45:47;12.50;70.70
32706;DHT22;19094;50.972;3.538;2023-12-20T13:48:13;12.50;70.70
32706;DHT22;19094;50.972;3.538;2023-12-20T13:50:39;12.50;70.70
32706;DHT22;19094;50.972;3.538;2023-12-20T13:53:05;12.50;70.70
32706;DHT22;19094;50.972;3.538;2023-12-20T13:55:31;12.50;70.60
32706;DHT22;19094;50.972;3.538;2023-12-20T13:57:57;12.50;70.50
32706;DHT22;19094;50.972;3.538;2023-12-20T14:00:23;12.50;70.50
32706;DHT22;19094;50.972;3.538;2023-12-20T14:02:49;12.50;70.50
32706;DHT22;19094;50.972;3.538;2023-12-20T14:05:16;12.50;70.70
32706;DHT22;19094;50.972;3.538;2023-12-20T14:07:46;12.50;70.70
32706;DHT22;19094;50.972;3.538;2023-12-20T14:10:13;12.50;70.70
32706;DHT22;19094;50.972;3.538;2023-12-20T14:12:39;12.50;70.70
32706;DHT22;19094;50.972;3.538;2023-12-20T14:15:06;12.50;70.70
32706;DHT22;19094;50.972;3.538;2023-12-20T14:17:40;12.50;70.70
32706;DHT22;19094;50.972;3.538;2023-12-20T14:20:07;12.50;70.60
32706;DHT22;19094;50.972;3.538;2023-12-20T14:22:34;12.50;70.70
32706;DHT22;19094;50.972;3.538;2023-12-20T14:25:00;12.50;70.80
32706;DHT22;19094;50.972;3.538;2023-12-20T14:27:27;12.50;70.90
32706;DHT22;19094;50.972;3.538;2023-12-20T14:29:55;12.50;70.80
32706;DHT22;19094;50.972;3.538;2023-12-20T14:32:21;12.50;70.90
32706;DHT22;19094;50.972;3.538;2023-12-20T14:34:47;12.50;70.90
32706;DHT22;19094;50.972;3.538;2023-12-20T14:37:13;12.50;70.80
32706;DHT22;19094;50.972;3.538;2023-12-20T14:39:40;12.50;70.90
32706;DHT22;19094;50.972;3.538;2023-12-20T14:42:10;12.60;70.80
32706;DHT22;19094;50.972;3.538;2023-12-20T14:44:43;12.60;70.80
32706;DHT22;19094;50.972;3.538;2023-12-20T14:47:09;12.50;70.80
32706;DHT22;19094;50.972;3.538;2023-12-20T14:49:35;12.50;71.00
32706;DHT22;19094;50.972;3.538;2023-12-20T14:52:06;12.40;71.10
32706;DHT22;19094;50.972;3.538;2023-12-20T14:54:32;12.50;71.20
32706;DHT22;19094;50.972;3.538;2023-12-20T14:56:59;12.50;71.10
32706;DHT22;19094;50.972;3.538;2023-12-20T14:59:25;12.50;71.20
32706;DHT22;19094;50.972;3.538;2023-12-20T15:01:51;12.50;71.10
32706;DHT22;19094;50.972;3.538;2023-12-20T15:04:17;12.50;71.10
32706;DHT22;19094;50.972;3.538;2023-12-20T15:06:43;12.50;71.30
32706;DHT22;19094;50.972;3.538;2023-12-20T15:09:10;12.50;71.10
32706;DHT22;19094;50.972;3.538;2023-12-20T15:11:36;12.50;71.20
32706;DHT22;19094;50.972;3.538;2023-12-20T15:14:02;12.60;71.10
32706;DHT22;19094;50.972;3.538;2023-12-20T15:16:28;12.60;70.90
32706;DHT22;19094;50.972;3.538;2023-12-20T15:18:54;12.60;71.00
32706;DHT22;19094;50.972;3.538;2023-12-20T15:21:20;12.60;71.10
32706;DHT22;19094;50.972;3.538;2023-12-20T15:23:55;12.50;71.10
32706;DHT22;19094;50.972;3.538;2023-12-20T15:26:37;12.50;71.00
32706;DHT22;19094;50.972;3.538;2023-12-20T15:29:03;12.50;71.20